Time;durP1;ratioP1;P1;durP2;ratioP2;P2;SDS_P1;SDS_P2;PMS_P1;PMS_P2;Temp;Humidity;BMP_temperature;BMP_pressure;BME280_temperature;BME280_humidity;BME280_pressure;Samples;Min_cycle;Max_cycle;Signal;HPM_P1;HPM_P2
2023/02/28 00:00:55;;;;;;;3.00;1.77;;;-0.60;99.90;;;;;;5091961;28;20231;-61
2023/02/28 00:03:23;;;;;;;4.43;2.07;;;-0.50;99.90;;;;;;5092536;28;20196;-60
2023/02/28 00:05:49;;;;;;;2.80;1.80;;;-0.60;99.90;;;;;;5092289;28;20589;-60
2023/02/28 00:08:16;;;;;;;2.37;1.70;;;-0.60;99.90;;;;;;5092650;28;20401;-60
2023/02/28 00:10:43;;;;;;;3.67;1.97;;;-0.60;99.90;;;;;;5092545;28;20228;-61
2023/02/28 00:13:10;;;;;;;3.73;2.40;;;-0.70;99.90;;;;;;5091989;28;20270;-61
2023/02/28 00:15:37;;;;;;;5.77;2.20;;;-0.70;99.90;;;;;;5092241;28;20302;-61
2023/02/28 00:18:04;;;;;;;2.90;1.93;;;-0.70;99.90;;;;;;5091884;28;20204;-60
2023/02/28 00:20:32;;;;;;;3.20;1.70;;;-0.70;99.90;;;;;;5092034;28;20235;-60
2023/02/28 00:22:59;;;;;;;3.07;2.00;;;-0.70;99.90;;;;;;5092073;28;20200;-60
2023/02/28 00:25:26;;;;;;;2.33;1.90;;;-0.70;99.90;;;;;;5092170;28;20204;-61
2023/02/28 00:27:53;;;;;;;2.70;1.80;;;-0.60;99.90;;;;;;5091644;28;20215;-60
2023/02/28 00:30:22;;;;;;;2.67;2.20;;;-0.70;99.90;;;;;;5092125;28;20734;-61
2023/02/28 00:32:49;;;;;;;2.23;2.00;;;-0.70;99.90;;;;;;5092104;28;20211;-60
2023/02/28 00:35:16;;;;;;;3.03;2.20;;;-0.70;99.90;;;;;;5091900;28;20695;-60
2023/02/28 00:37:44;;;;;;;3.20;2.20;;;-0.70;99.90;;;;;;5092082;28;20235;-60
2023/02/28 00:40:12;;;;;;;2.93;2.17;;;-0.60;99.90;;;;;;5091723;28;20266;-60
2023/02/28 00:42:39;;;;;;;2.87;2.00;;;-0.60;99.90;;;;;;5091946;28;20239;-60
2023/02/28 00:45:07;;;;;;;4.23;2.23;;;-0.60;99.90;;;;;;5091966;28;20204;-61
2023/02/28 00:47:34;;;;;;;4.23;2.20;;;-0.70;99.90;;;;;;5091882;28;20299;-60
2023/02/28 00:50:01;;;;;;;3.67;2.03;;;-0.70;99.90;;;;;;5091476;28;20208;-60
2023/02/28 00:52:28;;;;;;;3.67;2.53;;;-0.70;99.90;;;;;;5092031;28;20211;-61
2023/02/28 00:54:56;;;;;;;3.93;2.53;;;-0.80;99.90;;;;;;5091748;28;20224;-60
2023/02/28 00:57:23;;;;;;;3.70;2.23;;;-0.80;99.90;;;;;;5091797;28;20208;-60
2023/02/28 00:59:50;;;;;;;3.67;2.37;;;-0.70;99.90;;;;;;5091582;28;20212;-60
2023/02/28 01:02:17;;;;;;;3.43;2.60;;;-0.60;99.90;;;;;;5092017;28;20215;-60
2023/02/28 01:04:44;;;;;;;4.07;2.40;;;-0.70;99.90;;;;;;5092044;28;20200;-61
2023/02/28 01:07:11;;;;;;;4.83;2.60;;;-0.70;99.90;;;;;;5091534;28;20234;-60
2023/02/28 01:09:37;;;;;;;5.33;2.40;;;-0.80;99.90;;;;;;5091555;28;20211;-59
2023/02/28 01:12:07;;;;;;;3.40;2.50;;;-0.70;99.90;;;;;;5093655;28;20293;-61
2023/02/28 01:14:34;;;;;;;3.53;2.20;;;-0.70;99.90;;;;;;5095498;28;20281;-60
2023/02/28 01:17:01;;;;;;;7.00;2.23;;;-0.70;99.90;;;;;;5095662;28;20294;-61
2023/02/28 01:19:28;;;;;;;2.87;2.10;;;-0.80;99.90;;;;;;5095191;28;20208;-61
2023/02/28 01:21:54;;;;;;;2.67;2.20;;;-0.70;99.90;;;;;;5095164;28;20509;-59
2023/02/28 01:24:21;;;;;;;4.23;2.40;;;-0.70;99.90;;;;;;5095584;28;20223;-60
2023/02/28 01:26:48;;;;;;;6.23;2.37;;;-0.70;99.90;;;;;;5095650;28;20208;-61
2023/02/28 01:29:16;;;;;;;3.57;2.40;;;-0.70;99.90;;;;;;5095423;28;20204;-60
2023/02/28 01:31:43;;;;;;;4.57;2.70;;;-0.60;99.90;;;;;;5095805;28;20302;-60
2023/02/28 01:34:10;;;;;;;3.07;2.37;;;-0.60;99.90;;;;;;5095369;28;20297;-60
2023/02/28 01:36:37;;;;;;;5.90;2.47;;;-0.70;99.90;;;;;;5095298;28;20239;-59
2023/02/28 01:39:04;;;;;;;4.37;2.53;;;-0.70;99.90;;;;;;5095046;28;20208;-61
2023/02/28 01:41:33;;;;;;;5.00;2.87;;;-0.80;99.90;;;;;;5095583;28;20239;-59
2023/02/28 01:44:04;;;;;;;3.70;2.93;;;-0.80;99.90;;;;;;5095753;28;20196;-60
2023/02/28 01:46:33;;;;;;;5.10;2.30;;;-0.80;99.90;;;;;;5095626;28;20400;-60
2023/02/28 01:49:05;;;;;;;5.00;2.87;;;-0.80;99.90;;;;;;5095301;28;20626;-60
2023/02/28 01:51:38;;;;;;;4.63;2.90;;;-0.80;99.90;;;;;;5095510;28;20228;-60
2023/02/28 01:54:13;;;;;;;4.03;2.70;;;-0.80;99.90;;;;;;5095374;28;20220;-60
2023/02/28 01:56:44;;;;;;;3.33;2.50;;;-0.80;99.90;;;;;;5095356;28;20207;-61
2023/02/28 01:59:13;;;;;;;3.90;2.70;;;-0.70;99.90;;;;;;5095212;28;20204;-60
2023/02/28 02:01:41;;;;;;;6.20;2.80;;;-0.60;99.90;;;;;;5094639;28;20762;-61
2023/02/28 02:04:08;;;;;;;4.77;3.10;;;-0.60;99.90;;;;;;5094847;28;20200;-60
2023/02/28 02:06:38;;;;;;;4.43;2.80;;;-0.60;99.90;;;;;;5094981;28;20653;-60
2023/02/28 02:09:06;;;;;;;4.23;3.00;;;-0.60;99.90;;;;;;5094604;28;20568;-60
2023/02/28 02:11:33;;;;;;;5.10;3.00;;;-0.60;99.90;;;;;;5094772;28;20227;-61
2023/02/28 02:14:17;;;;;;;4.53;3.30;;;-0.50;99.90;;;;;;5094393;28;20220;-61
2023/02/28 02:16:58;;;;;;;3.33;2.40;;;-0.50;99.90;;;;;;5094438;28;20207;-60
2023/02/28 02:19:54;;;;;;;4.17;2.87;;;-0.50;99.90;;;;;;5093924;28;20581;-61
2023/02/28 02:22:44;;;;;;;4.07;2.73;;;-0.40;99.90;;;;;;5094045;28;20210;-60
2023/02/28 02:25:29;;;;;;;7.23;2.87;;;-0.30;99.90;;;;;;5094100;28;20208;-59
2023/02/28 02:28:21;;;;;;;4.00;2.80;;;-0.20;99.90;;;;;;5093684;28;20630;-61
2023/02/28 02:31:19;;;;;;;4.53;2.60;;;-0.20;99.90;;;;;;5083396;28;20654;-60
2023/02/28 02:34:36;;;;;;;4.17;2.80;;;0.20;99.90;;;;;;5094049;28;20231;-60
2023/02/28 02:37:13;;;;;;;4.27;2.93;;;-0.20;99.90;;;;;;5031354;28;20209;-60
2023/02/28 02:39:48;;;;;;;6.47;3.00;;;-0.10;99.90;;;;;;5031219;28;20693;-60
2023/02/28 02:42:19;;;;;;;3.93;2.83;;;-0.10;99.90;;;;;;5073726;28;20703;-61
2023/02/28 02:44:51;;;;;;;4.17;2.90;;;-0.10;99.90;;;;;;5093742;28;20204;-61
2023/02/28 02:47:20;;;;;;;3.63;3.00;;;-0.10;99.90;;;;;;5093416;28;20212;-60
2023/02/28 02:49:52;;;;;;;5.77;3.30;;;-0.10;99.90;;;;;;5093462;28;20204;-61
2023/02/28 02:52:24;;;;;;;5.17;3.10;;;-0.10;99.90;;;;;;5108460;22;20243;-56
2023/02/28 02:54:53;;;;;;;6.23;3.20;;;-0.10;99.90;;;;;;5094423;28;20265;-56
2023/02/28 02:57:24;;;;;;;6.00;3.30;;;0.00;99.90;;;;;;5094108;28;20236;-56
2023/02/28 02:59:54;;;;;;;5.43;3.07;;;0.00;99.90;;;;;;5093510;28;20201;-56
2023/02/28 03:02:22;;;;;;;4.07;3.27;;;0.00;99.90;;;;;;5093813;28;20221;-56
2023/02/28 03:04:53;;;;;;;3.97;3.33;;;0.00;99.90;;;;;;5094162;28;20675;-56
2023/02/28 03:07:20;;;;;;;3.73;3.20;;;0.00;99.90;;;;;;5094250;28;20215;-56
2023/02/28 03:09:53;;;;;;;4.37;3.03;;;0.00;99.90;;;;;;5093855;28;20679;-56
2023/02/28 03:12:21;;;;;;;3.90;2.90;;;0.00;99.90;;;;;;5093801;28;20296;-56
2023/02/28 03:14:56;;;;;;;4.53;3.10;;;0.00;99.90;;;;;;5093911;28;20227;-56
2023/02/28 03:17:39;;;;;;;6.13;3.20;;;0.00;99.90;;;;;;5094326;28;20238;-56
2023/02/28 03:20:16;;;;;;;4.93;3.50;;;-0.10;99.90;;;;;;5093900;28;20204;-57
2023/02/28 03:22:52;;;;;;;5.17;3.47;;;0.00;99.90;;;;;;5094002;28;20215;-56
2023/02/28 03:25:26;;;;;;;4.77;3.23;;;0.00;99.90;;;;;;5094375;28;20208;-57
2023/02/28 03:28:01;;;;;;;6.03;3.50;;;0.10;99.90;;;;;;5094635;28;20214;-56
2023/02/28 03:30:36;;;;;;;5.20;3.50;;;0.20;99.90;;;;;;5093947;28;20643;-56
2023/02/28 03:33:08;;;;;;;5.30;3.30;;;0.10;99.90;;;;;;5094201;28;20211;-56
2023/02/28 03:35:39;;;;;;;4.57;3.13;;;0.20;99.90;;;;;;5093527;28;20220;-56
2023/02/28 03:38:13;;;;;;;5.57;3.70;;;0.20;99.90;;;;;;5094116;28;20589;-56
2023/02/28 03:40:44;;;;;;;5.57;3.50;;;0.20;99.90;;;;;;5093881;28;20259;-56
2023/02/28 03:43:16;;;;;;;4.23;3.50;;;0.10;99.90;;;;;;5093667;28;20209;-56
2023/02/28 03:45:44;;;;;;;3.90;3.37;;;0.10;99.90;;;;;;5093276;28;20690;-56
2023/02/28 03:48:16;;;;;;;5.17;3.53;;;0.10;99.90;;;;;;5093320;28;20212;-56
2023/02/28 03:50:48;;;;;;;4.90;3.27;;;0.10;99.90;;;;;;5093181;28;20236;-56
2023/02/28 03:53:20;;;;;;;5.87;3.50;;;0.20;99.90;;;;;;5093378;28;20207;-56
2023/02/28 03:55:50;;;;;;;5.30;3.23;;;0.20;99.90;;;;;;5093312;28;20227;-56
2023/02/28 03:58:24;;;;;;;5.97;3.20;;;0.30;99.90;;;;;;5092794;28;20671;-56
2023/02/28 04:00:57;;;;;;;5.00;3.60;;;0.40;99.90;;;;;;5093650;28;20224;-56
2023/02/28 04:03:24;;;;;;;5.53;3.50;;;0.40;99.90;;;;;;5093353;28;20208;-56
2023/02/28 04:05:55;;;;;;;4.73;3.23;;;0.40;99.90;;;;;;5093290;28;20207;-56
2023/02/28 04:08:23;;;;;;;5.30;3.50;;;0.30;99.90;;;;;;5092789;28;20208;-56
2023/02/28 04:10:56;;;;;;;5.17;3.80;;;0.40;99.90;;;;;;5092972;28;20238;-56
2023/02/28 04:13:23;;;;;;;4.10;3.20;;;0.40;99.90;;;;;;5093004;28;20211;-56
2023/02/28 04:15:50;;;;;;;4.50;3.80;;;0.40;99.90;;;;;;5092853;28;20600;-55
2023/02/28 04:18:17;;;;;;;3.80;3.20;;;0.30;99.90;;;;;;5092582;28;20210;-55
2023/02/28 04:20:44;;;;;;;6.40;3.70;;;0.30;99.90;;;;;;5092898;28;20604;-55
2023/02/28 04:23:12;;;;;;;4.67;3.50;;;0.30;99.90;;;;;;5092899;28;20215;-56
2023/02/28 04:25:40;;;;;;;5.27;3.53;;;0.40;99.90;;;;;;5093400;28;20208;-56
2023/02/28 04:28:06;;;;;;;6.67;3.77;;;0.40;99.90;;;;;;5092602;28;20212;-55
2023/02/28 04:30:33;;;;;;;5.17;3.80;;;0.50;99.90;;;;;;5093175;28;20227;-56
2023/02/28 04:33:01;;;;;;;7.80;3.90;;;0.40;99.90;;;;;;5093005;28;20215;-55
2023/02/28 04:35:27;;;;;;;5.60;3.70;;;0.50;99.90;;;;;;5092598;28;20220;-56
2023/02/28 04:37:54;;;;;;;4.77;4.03;;;0.50;99.90;;;;;;5092752;28;20231;-55
2023/02/28 04:40:22;;;;;;;4.83;3.73;;;0.40;99.90;;;;;;5092557;28;20204;-55
2023/02/28 04:42:49;;;;;;;4.90;3.60;;;0.40;99.90;;;;;;5092843;28;20204;-55
2023/02/28 04:45:17;;;;;;;7.50;3.87;;;0.50;99.90;;;;;;5092788;28;20204;-55
2023/02/28 04:47:43;;;;;;;4.57;3.73;;;0.60;99.90;;;;;;5096038;28;20290;-55
2023/02/28 04:50:11;;;;;;;4.40;3.87;;;0.50;99.90;;;;;;5096419;28;20207;-56
2023/02/28 04:52:38;;;;;;;5.87;3.93;;;0.60;99.90;;;;;;5096430;28;20211;-55
2023/02/28 04:55:06;;;;;;;5.13;3.80;;;0.50;99.90;;;;;;5096895;28;20224;-56
2023/02/28 04:57:34;;;;;;;6.00;4.50;;;0.60;99.90;;;;;;5096437;28;20223;-56
2023/02/28 05:00:00;;;;;;;5.30;4.07;;;0.50;99.90;;;;;;5096490;28;20200;-56
2023/02/28 05:02:27;;;;;;;5.63;4.00;;;0.50;99.90;;;;;;5096288;28;20237;-57
2023/02/28 05:04:54;;;;;;;7.90;4.07;;;0.50;99.90;;;;;;5096488;28;20246;-56
2023/02/28 05:07:20;;;;;;;5.60;4.00;;;0.50;99.90;;;;;;5096529;28;20211;-56
2023/02/28 05:09:47;;;;;;;5.03;4.13;;;0.60;99.90;;;;;;5096288;28;20243;-56
2023/02/28 05:12:14;;;;;;;5.73;4.20;;;0.50;99.90;;;;;;5096142;28;20232;-56
2023/02/28 05:14:42;;;;;;;6.57;4.23;;;0.50;99.90;;;;;;5096114;28;20227;-56
2023/02/28 05:17:10;;;;;;;6.23;3.87;;;0.50;99.90;;;;;;5096284;28;20207;-56
2023/02/28 05:19:36;;;;;;;6.73;4.07;;;0.50;99.90;;;;;;5096341;28;20254;-56
2023/02/28 05:22:03;;;;;;;5.67;4.53;;;0.40;99.90;;;;;;5096159;28;20232;-56
2023/02/28 05:24:30;;;;;;;5.43;3.67;;;0.50;99.90;;;;;;5096739;28;20211;-56
2023/02/28 05:26:57;;;;;;;6.80;4.23;;;0.50;99.90;;;;;;5096165;28;20353;-56
2023/02/28 05:29:24;;;;;;;6.03;3.67;;;0.50;99.90;;;;;;5096147;28;20706;-56
2023/02/28 05:31:52;;;;;;;6.43;4.20;;;0.50;99.90;;;;;;5096092;28;20243;-56
2023/02/28 05:34:19;;;;;;;6.37;4.20;;;0.50;99.90;;;;;;5095693;28;20219;-55
2023/02/28 05:36:45;;;;;;;5.43;4.37;;;0.50;99.90;;;;;;5095827;28;20223;-55
2023/02/28 05:39:13;;;;;;;6.90;4.40;;;0.50;99.90;;;;;;5095509;28;20212;-55
2023/02/28 05:41:41;;;;;;;5.27;4.00;;;0.40;99.90;;;;;;5095479;28;20235;-55
2023/02/28 05:44:08;;;;;;;5.23;4.00;;;0.50;99.90;;;;;;5095555;28;20207;-55
2023/02/28 05:46:35;;;;;;;8.60;4.10;;;0.40;99.90;;;;;;5095433;28;20200;-55
2023/02/28 05:49:05;;;;;;;5.20;4.03;;;0.40;99.90;;;;;;5096172;28;20219;-55
2023/02/28 05:51:31;;;;;;;6.00;4.37;;;0.30;99.90;;;;;;5095882;28;20703;-56
2023/02/28 05:54:02;;;;;;;4.87;3.90;;;0.40;99.90;;;;;;5096140;28;20227;-55
2023/02/28 05:56:29;;;;;;;9.00;4.40;;;0.40;99.90;;;;;;5096119;28;20231;-55
2023/02/28 05:58:56;;;;;;;5.37;4.33;;;0.40;99.90;;;;;;5094651;28;20254;-55
2023/02/28 06:01:35;;;;;;;4.87;3.80;;;0.40;99.90;;;;;;5096284;28;20224;-55
2023/02/28 06:04:05;;;;;;;6.50;4.20;;;0.50;99.90;;;;;;5095822;28;20632;-55
2023/02/28 06:06:33;;;;;;;5.67;4.40;;;0.60;99.90;;;;;;5095507;28;20211;-55
2023/02/28 06:09:01;;;;;;;6.37;4.50;;;0.60;99.90;;;;;;5095551;28;20690;-55
2023/02/28 06:11:28;;;;;;;5.90;4.50;;;0.60;99.90;;;;;;5095346;28;20718;-55
2023/02/28 06:13:56;;;;;;;6.67;4.30;;;0.60;99.90;;;;;;5095135;28;20577;-55
2023/02/28 06:16:23;;;;;;;6.67;4.60;;;0.60;99.90;;;;;;5095841;28;20246;-55
2023/02/28 06:18:49;;;;;;;6.10;4.00;;;0.60;99.90;;;;;;5095356;28;20215;-55
2023/02/28 06:21:17;;;;;;;7.57;5.00;;;0.60;99.90;;;;;;5094626;28;20224;-55
2023/02/28 06:23:44;;;;;;;6.97;4.33;;;0.70;99.90;;;;;;5094593;28;20206;-55
2023/02/28 06:26:11;;;;;;;7.97;4.63;;;0.70;99.90;;;;;;5094672;28;20205;-55
2023/02/28 06:28:38;;;;;;;6.17;4.20;;;0.80;99.90;;;;;;5094844;28;20706;-55
2023/02/28 06:31:09;;;;;;;6.03;4.50;;;0.90;99.90;;;;;;5094711;28;20246;-56
2023/02/28 06:33:36;;;;;;;6.27;4.50;;;0.90;99.90;;;;;;5094728;28;20238;-56
2023/02/28 06:36:02;;;;;;;6.67;4.33;;;0.90;99.90;;;;;;5095298;28;20244;-56
2023/02/28 06:38:31;;;;;;;6.17;4.20;;;0.90;99.90;;;;;;5094544;28;20212;-56
2023/02/28 06:41:00;;;;;;;7.33;4.80;;;0.90;99.90;;;;;;5094379;28;20699;-54
2023/02/28 06:43:29;;;;;;;8.27;4.27;;;0.90;99.90;;;;;;5094670;28;20201;-54
2023/02/28 06:45:57;;;;;;;6.40;4.43;;;1.00;99.90;;;;;;5094422;28;20196;-54
2023/02/28 06:48:24;;;;;;;8.43;4.40;;;1.10;99.90;;;;;;5094318;28;20212;-54
2023/02/28 06:50:51;;;;;;;8.17;4.73;;;1.20;99.90;;;;;;5093667;28;20236;-54
2023/02/28 06:53:18;;;;;;;8.77;5.33;;;1.20;99.90;;;;;;5094065;28;20216;-55
2023/02/28 06:55:46;;;;;;;7.77;5.00;;;1.30;99.90;;;;;;5094110;28;20226;-55
2023/02/28 06:58:15;;;;;;;7.73;5.00;;;1.30;99.90;;;;;;5094342;28;20208;-55
2023/02/28 07:00:42;;;;;;;6.87;4.77;;;1.30;99.90;;;;;;5093163;28;20232;-55
2023/02/28 07:03:09;;;;;;;9.27;4.90;;;1.30;99.90;;;;;;5094017;28;20583;-55
2023/02/28 07:05:36;;;;;;;7.03;4.90;;;1.30;99.90;;;;;;5093338;28;20211;-55
2023/02/28 07:08:03;;;;;;;7.33;4.60;;;1.30;99.90;;;;;;5094078;28;20215;-56
2023/02/28 07:10:30;;;;;;;6.67;5.00;;;1.50;99.90;;;;;;5093389;28;20221;-55
2023/02/28 07:12:58;;;;;;;9.97;4.93;;;1.50;99.90;;;;;;5093316;28;20215;-55
2023/02/28 07:15:25;;;;;;;7.00;4.83;;;1.60;99.90;;;;;;5093037;28;20711;-55
2023/02/28 07:17:51;;;;;;;6.87;4.80;;;1.60;99.90;;;;;;5093324;28;20200;-55
2023/02/28 07:20:18;;;;;;;6.77;5.10;;;1.60;99.90;;;;;;5092891;28;20252;-56
2023/02/28 07:22:45;;;;;;;6.50;5.00;;;1.60;99.90;;;;;;5093315;28;20211;-54
2023/02/28 07:25:12;;;;;;;6.23;4.73;;;1.70;99.90;;;;;;5093151;28;20679;-54
2023/02/28 07:27:38;;;;;;;7.50;5.10;;;1.70;99.90;;;;;;5092965;28;20738;-54
2023/02/28 07:30:09;;;;;;;7.40;4.67;;;1.70;99.90;;;;;;5092847;28;20208;-54
2023/02/28 07:32:37;;;;;;;6.80;5.17;;;1.80;99.90;;;;;;5093214;28;20208;-54
2023/02/28 07:35:04;;;;;;;7.07;4.83;;;1.70;99.90;;;;;;5093189;28;20228;-55
2023/02/28 07:37:36;;;;;;;7.53;5.23;;;1.70;99.90;;;;;;5093092;28;20216;-54
2023/02/28 07:40:06;;;;;;;6.73;5.00;;;1.80;99.90;;;;;;5092920;28;20223;-54
2023/02/28 07:42:33;;;;;;;6.73;4.90;;;1.90;99.90;;;;;;5092596;28;20224;-54
2023/02/28 07:44:59;;;;;;;8.67;5.40;;;1.90;99.90;;;;;;5092671;28;20203;-55
2023/02/28 07:47:29;;;;;;;7.20;5.10;;;1.90;99.90;;;;;;5092593;28;20212;-54
2023/02/28 07:49:56;;;;;;;12.17;5.97;;;2.00;99.90;;;;;;5092274;28;20227;-55
2023/02/28 07:52:24;;;;;;;8.33;5.77;;;2.00;99.90;;;;;;5092628;28;20232;-55
2023/02/28 07:54:51;;;;;;;11.03;5.90;;;2.20;99.90;;;;;;5092759;28;20228;-55
2023/02/28 07:57:17;;;;;;;11.33;6.27;;;2.30;99.90;;;;;;5092371;28;20231;-55
2023/02/28 07:59:44;;;;;;;7.50;5.87;;;2.20;99.90;;;;;;5092008;28;20215;-55
2023/02/28 08:02:13;;;;;;;8.63;5.50;;;2.30;99.90;;;;;;5092670;28;20232;-54
2023/02/28 08:04:41;;;;;;;7.80;5.77;;;2.30;99.90;;;;;;5092558;28;20560;-55
2023/02/28 08:07:09;;;;;;;6.27;4.80;;;2.30;99.90;;;;;;5092319;28;20691;-56
2023/02/28 08:09:36;;;;;;;7.23;5.53;;;2.30;99.90;;;;;;5092128;28;20261;-54
2023/02/28 08:12:02;;;;;;;8.30;5.53;;;2.10;99.90;;;;;;5092355;28;20231;-54
2023/02/28 08:14:30;;;;;;;7.13;5.47;;;2.20;99.90;;;;;;5092136;28;20211;-54
2023/02/28 08:16:56;;;;;;;10.10;5.67;;;2.30;99.90;;;;;;5092169;28;20234;-54
2023/02/28 08:19:23;;;;;;;7.50;5.33;;;2.40;99.90;;;;;;5092266;28;20676;-54
2023/02/28 08:21:51;;;;;;;6.53;5.07;;;2.50;99.90;;;;;;5091866;28;20223;-55
2023/02/28 08:24:18;;;;;;;6.63;5.50;;;2.60;99.90;;;;;;5092483;28;20238;-55
2023/02/28 08:26:45;;;;;;;9.83;5.33;;;2.60;99.90;;;;;;5092549;28;20204;-55
2023/02/28 08:29:11;;;;;;;9.63;5.37;;;2.60;99.90;;;;;;5092446;28;20216;-54
2023/02/28 08:31:38;;;;;;;7.53;5.40;;;2.80;99.90;;;;;;5092309;28;20600;-55
2023/02/28 08:34:06;;;;;;;7.77;5.60;;;3.00;99.90;;;;;;5092370;28;20746;-54
2023/02/28 08:36:33;;;;;;;6.50;5.17;;;3.30;99.90;;;;;;5092213;28;20223;-54
2023/02/28 08:39:01;;;;;;;9.80;6.17;;;3.40;99.90;;;;;;5091890;28;20208;-54
2023/02/28 08:41:28;;;;;;;10.47;6.13;;;3.70;99.90;;;;;;5092021;28;20722;-54
2023/02/28 08:43:55;;;;;;;7.40;5.93;;;3.80;99.90;;;;;;5092261;28;20559;-54
2023/02/28 08:46:22;;;;;;;8.57;5.77;;;4.00;99.90;;;;;;5092311;28;20240;-54
2023/02/28 08:48:52;;;;;;;9.90;5.60;;;4.10;99.90;;;;;;5091886;28;20720;-54
2023/02/28 08:51:25;;;;;;;9.07;6.10;;;4.10;99.90;;;;;;5092355;28;20730;-54
2023/02/28 08:53:53;;;;;;;10.30;6.03;;;4.20;99.90;;;;;;5092070;28;20212;-54
2023/02/28 08:56:21;;;;;;;7.23;5.20;;;4.20;99.90;;;;;;5091800;28;20223;-54
2023/02/28 08:58:49;;;;;;;7.23;5.60;;;4.10;99.90;;;;;;5091745;28;20299;-54
2023/02/28 09:01:18;;;;;;;8.93;5.70;;;3.90;99.90;;;;;;5091993;28;20228;-55
2023/02/28 09:03:46;;;;;;;10.90;6.00;;;3.80;99.90;;;;;;5092270;28;20200;-55
2023/02/28 09:06:14;;;;;;;7.60;5.53;;;3.80;99.90;;;;;;5092202;28;20640;-54
2023/02/28 09:08:41;;;;;;;6.97;5.63;;;3.80;99.90;;;;;;5091750;28;20265;-55
2023/02/28 09:11:09;;;;;;;8.13;5.87;;;3.70;99.90;;;;;;5092109;28;20527;-54
2023/02/28 09:13:37;;;;;;;7.57;5.73;;;3.80;99.90;;;;;;5092004;28;20208;-55
2023/02/28 09:16:06;;;;;;;8.47;5.73;;;3.70;99.90;;;;;;5091734;28;20695;-55
2023/02/28 09:18:34;;;;;;;7.10;5.40;;;3.70;99.90;;;;;;5091816;28;20231;-55
2023/02/28 09:21:04;;;;;;;9.77;5.70;;;3.70;99.90;;;;;;5091562;28;20226;-54
2023/02/28 09:23:31;;;;;;;6.60;5.20;;;3.80;99.90;;;;;;5092127;28;20215;-55
2023/02/28 09:25:58;;;;;;;8.80;5.77;;;3.90;99.90;;;;;;5091825;28;20684;-55
2023/02/28 09:28:25;;;;;;;7.00;5.43;;;4.00;99.90;;;;;;5091724;28;20201;-55
2023/02/28 09:30:56;;;;;;;7.23;5.83;;;4.20;99.90;;;;;;5091655;28;20228;-56
2023/02/28 09:33:23;;;;;;;8.03;5.70;;;4.50;99.90;;;;;;5093161;28;20215;-55
2023/02/28 09:35:50;;;;;;;7.77;6.17;;;4.80;99.90;;;;;;5095535;28;20207;-55
2023/02/28 09:38:17;;;;;;;7.53;5.53;;;5.00;99.90;;;;;;5095748;28;20620;-55
2023/02/28 09:40:50;;;;;;;9.50;5.90;;;5.30;99.90;;;;;;5095099;28;20220;-55
2023/02/28 09:43:20;;;;;;;12.27;6.33;;;5.20;99.90;;;;;;5095378;28;20309;-55
2023/02/28 09:45:52;;;;;;;12.57;6.40;;;5.20;99.90;;;;;;5095357;28;20211;-55
2023/02/28 09:48:25;;;;;;;9.87;5.90;;;5.30;99.90;;;;;;5095159;28;20215;-54
2023/02/28 09:50:56;;;;;;;12.07;5.60;;;5.50;99.90;;;;;;5094569;28;20232;-55
2023/02/28 09:53:33;;;;;;;8.30;6.20;;;5.50;99.90;;;;;;5095428;28;20204;-55
2023/02/28 09:56:04;;;;;;;10.20;5.60;;;5.20;99.90;;;;;;5094807;28;20635;-55
2023/02/28 09:58:38;;;;;;;14.00;6.67;;;5.20;99.90;;;;;;5094747;28;20219;-55
2023/02/28 10:01:10;;;;;;;8.50;6.10;;;5.10;99.90;;;;;;5094841;28;20258;-55
2023/02/28 10:03:40;;;;;;;7.90;5.90;;;5.10;99.90;;;;;;5094809;28;20208;-55
2023/02/28 10:06:13;;;;;;;9.37;6.00;;;5.00;99.90;;;;;;5094694;28;20226;-57
2023/02/28 10:08:48;;;;;;;7.37;5.83;;;5.00;99.90;;;;;;5094575;28;20213;-55
2023/02/28 10:11:17;;;;;;;9.03;5.97;;;5.10;99.90;;;;;;5094544;28;20234;-55
2023/02/28 10:13:52;;;;;;;9.27;6.47;;;5.10;99.90;;;;;;5094760;28;20204;-55
2023/02/28 10:16:26;;;;;;;8.37;6.10;;;5.20;99.90;;;;;;5094489;28;20268;-55
2023/02/28 10:18:58;;;;;;;7.07;5.70;;;5.40;99.90;;;;;;5094418;28;20204;-55
2023/02/28 10:21:29;;;;;;;15.00;6.50;;;5.70;99.90;;;;;;5094148;28;20220;-55
2023/02/28 10:24:04;;;;;;;15.40;6.37;;;6.00;99.90;;;;;;5094558;28;20208;-54
2023/02/28 10:26:33;;;;;;;9.20;6.13;;;6.10;99.90;;;;;;5094793;28;20204;-60
2023/02/28 10:29:00;;;;;;;8.57;6.00;;;6.20;99.90;;;;;;5094486;28;20216;-58
2023/02/28 10:31:27;;;;;;;6.43;4.53;;;6.40;99.90;;;;;;5094191;28;20315;-55
2023/02/28 10:33:55;;;;;;;8.57;5.90;;;6.00;99.70;;;;;;5094366;28;20208;-54
2023/02/28 10:36:23;;;;;;;7.33;6.00;;;5.70;99.90;;;;;;5094126;28;20705;-55
2023/02/28 10:38:51;;;;;;;7.93;5.80;;;5.50;99.90;;;;;;5093974;28;20204;-54
2023/02/28 10:41:28;;;;;;;8.10;6.27;;;5.40;99.90;;;;;;5093991;28;20232;-54
2023/02/28 10:44:14;;;;;;;7.23;5.87;;;5.20;99.90;;;;;;5093435;28;20236;-54
2023/02/28 10:46:41;;;;;;;8.10;6.03;;;5.50;99.90;;;;;;5094019;28;20621;-55
2023/02/28 10:49:15;;;;;;;7.43;5.67;;;5.70;99.90;;;;;;5093846;28;20212;-55
2023/02/28 10:51:42;;;;;;;9.13;6.10;;;5.70;99.90;;;;;;5093721;28;20278;-55
2023/02/28 10:54:17;;;;;;;10.03;6.47;;;5.60;99.90;;;;;;5093722;28;20212;-55
2023/02/28 10:56:44;;;;;;;9.17;6.33;;;5.70;99.90;;;;;;5093607;28;20726;-55
2023/02/28 10:59:28;;;;;;;10.17;6.63;;;5.60;99.90;;;;;;5093392;28;20208;-56
2023/02/28 11:01:54;;;;;;;8.43;6.20;;;5.60;99.90;;;;;;5093787;28;20239;-56
2023/02/28 11:04:37;;;;;;;13.23;6.20;;;5.50;99.90;;;;;;5093600;28;20208;-55
2023/02/28 11:07:06;;;;;;;12.33;8.73;;;5.30;99.90;;;;;;5093454;28;20287;-54
2023/02/28 11:09:36;;;;;;;7.63;5.83;;;5.10;99.90;;;;;;5093314;28;20204;-54
2023/02/28 11:12:04;;;;;;;11.83;6.17;;;5.00;99.90;;;;;;5093541;28;20235;-54
2023/02/28 11:14:35;;;;;;;7.87;5.80;;;5.20;99.90;;;;;;5093520;28;20679;-56
2023/02/28 11:17:14;;;;;;;7.87;6.10;;;5.50;99.90;;;;;;5093679;28;20228;-54
2023/02/28 11:19:51;;;;;;;7.83;6.03;;;5.80;99.90;;;;;;5093220;28;20212;-55
2023/02/28 11:22:21;;;;;;;7.80;6.27;;;6.00;99.90;;;;;;5093332;28;20224;-54
2023/02/28 11:24:51;;;;;;;9.20;6.00;;;6.20;99.80;;;;;;5093569;28;20207;-54
2023/02/28 11:27:46;;;;;;;8.70;6.20;;;6.40;99.50;;;;;;5093387;28;20208;-55
2023/02/28 11:30:25;;;;;;;8.20;6.00;;;6.80;98.90;;;;;;5079151;28;20208;-55
2023/02/28 11:32:52;;;;;;;8.30;5.93;;;6.80;99.10;;;;;;5093658;28;20200;-54
2023/02/28 11:35:26;;;;;;;11.17;6.27;;;6.80;98.50;;;;;;5093426;28;20208;-57
2023/02/28 11:37:53;;;;;;;7.70;5.90;;;6.70;98.50;;;;;;5093014;28;20255;-55
2023/02/28 11:40:26;;;;;;;7.80;5.60;;;6.60;98.40;;;;;;5092719;28;20212;-55
2023/02/28 11:43:03;;;;;;;8.20;6.23;;;6.70;98.40;;;;;;5093157;28;20195;-55
2023/02/28 11:45:45;;;;;;;9.03;5.87;;;6.80;98.40;;;;;;5092926;28;20208;-55
2023/02/28 11:48:19;;;;;;;7.53;6.13;;;6.90;98.60;;;;;;5092884;28;20205;-54
2023/02/28 11:51:06;;;;;;;8.10;6.10;;;6.90;98.20;;;;;;5092580;28;20236;-54
2023/02/28 11:54:12;;;;;;;6.87;5.87;;;6.80;98.10;;;;;;5093001;28;20211;-54
2023/02/28 11:56:43;;;;;;;8.87;6.03;;;6.80;98.20;;;;;;5029366;28;20218;-55
2023/02/28 11:59:27;;;;;;;6.53;5.80;;;6.80;98.10;;;;;;5079448;28;20208;-55
2023/02/28 12:02:07;;;;;;;9.33;5.47;;;7.00;97.90;;;;;;5092724;28;20236;-55
2023/02/28 12:04:49;;;;;;;7.60;5.87;;;7.00;97.80;;;;;;5092555;28;20215;-56
2023/02/28 12:07:27;;;;;;;8.03;6.03;;;6.90;97.80;;;;;;5092499;28;20210;-55
2023/02/28 12:10:04;;;;;;;6.60;5.77;;;6.80;98.00;;;;;;5092630;28;20208;-60
2023/02/28 12:12:48;;;;;;;6.80;5.60;;;6.70;98.00;;;;;;5093038;28;20232;-60
2023/02/28 12:15:30;;;;;;;6.17;5.27;;;6.90;97.90;;;;;;5092574;28;20215;-55
2023/02/28 12:18:11;;;;;;;9.63;5.90;;;6.90;97.60;;;;;;5092300;28;20228;-56
2023/02/28 12:20:43;;;;;;;8.63;5.60;;;6.90;97.70;;;;;;5092532;28;20230;-56
2023/02/28 12:23:34;;;;;;;7.03;5.50;;;6.80;97.20;;;;;;5092361;28;20219;-55
2023/02/28 12:26:09;;;;;;;7.80;5.50;;;6.70;97.50;;;;;;5092330;28;20212;-56
2023/02/28 12:28:41;;;;;;;7.33;5.80;;;6.80;97.40;;;;;;5092102;28;20265;-56
2023/02/28 12:31:14;;;;;;;12.17;5.93;;;6.80;97.20;;;;;;5092196;28;20231;-55
2023/02/28 12:33:45;;;;;;;10.10;5.90;;;6.80;97.20;;;;;;5092571;28;20216;-55
2023/02/28 12:36:18;;;;;;;9.30;5.87;;;6.80;97.20;;;;;;5093369;28;20211;-56
2023/02/28 12:38:51;;;;;;;15.37;6.00;;;6.90;97.20;;;;;;5092715;28;20318;-55
2023/02/28 12:41:22;;;;;;;9.37;5.90;;;7.00;97.20;;;;;;5092790;28;20232;-55
2023/02/28 12:43:56;;;;;;;10.33;5.70;;;7.00;97.20;;;;;;5092453;28;20223;-57
2023/02/28 12:46:28;;;;;;;13.27;6.00;;;7.10;97.00;;;;;;5092093;28;20211;-57
2023/02/28 12:48:57;;;;;;;6.40;5.67;;;7.20;96.90;;;;;;5092055;28;20208;-57
2023/02/28 12:51:26;;;;;;;8.03;5.83;;;7.20;96.40;;;;;;5091870;28;20780;-56
2023/02/28 12:54:05;;;;;;;21.97;6.10;;;7.20;96.60;;;;;;5092012;28;20560;-56
2023/02/28 12:56:41;;;;;;;8.30;5.47;;;7.40;96.70;;;;;;5092020;28;20236;-57
2023/02/28 12:59:16;;;;;;;7.67;5.60;;;7.40;96.60;;;;;;5091818;28;20219;-56
2023/02/28 13:02:02;;;;;;;34.27;7.33;;;7.30;96.40;;;;;;5091924;28;20742;-55
2023/02/28 13:04:59;;;;;;;11.57;5.90;;;7.30;96.30;;;;;;5091778;28;20200;-57
2023/02/28 13:07:57;;;;;;;10.10;5.70;;;7.30;95.90;;;;;;5079853;28;20200;-55
2023/02/28 13:10:26;;;;;;;10.53;5.33;;;7.40;96.20;;;;;;5091484;28;20200;-55